Time;durP1;ratioP1;P1;durP2;ratioP2;P2;SDS_P1;SDS_P2;PMS_P1;PMS_P2;Temp;Humidity;BMP_temperature;BMP_pressure;BME280_temperature;BME280_humidity;BME280_pressure;Samples;Min_cycle;Max_cycle;Signal;HPM_P1;HPM_P2
2022/10/07 00:00:45;;;;;;;2.38;1.40;;;20.60;48.40;;;;;;5135303;27;20467;-10
2022/10/07 00:03:11;;;;;;;2.10;1.08;;;20.60;48.40;;;;;;5135826;28;20047;-10
2022/10/07 00:05:37;;;;;;;2.10;1.40;;;20.60;48.40;;;;;;5135941;28;20100;-11
2022/10/07 00:08:02;;;;;;;2.42;1.23;;;20.60;48.40;;;;;;5136102;28;20079;-10
2022/10/07 00:10:28;;;;;;;1.70;1.13;;;20.60;48.40;;;;;;5135882;28;20047;-10
2022/10/07 00:12:54;;;;;;;2.00;1.20;;;20.60;48.40;;;;;;5135595;28;20058;-10
2022/10/07 00:15:20;;;;;;;1.90;1.35;;;20.60;48.40;;;;;;5136171;28;20103;-10
2022/10/07 00:17:45;;;;;;;2.33;1.20;;;20.60;48.40;;;;;;5117203;28;20101;-10
2022/10/07 00:20:11;;;;;;;2.78;1.23;;;20.60;48.40;;;;;;5135500;28;20043;-10
2022/10/07 00:22:37;;;;;;;1.92;1.10;;;20.60;48.90;;;;;;5135456;28;20059;-10
2022/10/07 00:25:04;;;;;;;2.25;1.30;;;20.60;48.40;;;;;;5135468;28;20055;-11
2022/10/07 00:27:29;;;;;;;1.83;1.20;;;20.60;48.40;;;;;;5135438;28;20055;-10
2022/10/07 00:29:55;;;;;;;2.17;1.58;;;20.60;48.40;;;;;;5135897;28;20047;-10
2022/10/07 00:32:20;;;;;;;2.25;1.10;;;20.60;48.40;;;;;;5135469;28;20477;-10
2022/10/07 00:34:46;;;;;;;2.15;1.15;;;20.60;48.40;;;;;;5135289;28;20054;-10
2022/10/07 00:37:12;;;;;;;2.28;1.30;;;20.60;48.40;;;;;;5135531;28;20081;-10
2022/10/07 00:39:38;;;;;;;1.92;1.20;;;20.60;48.40;;;;;;5116843;28;20070;-10
2022/10/07 00:42:04;;;;;;;2.22;1.20;;;20.60;48.40;;;;;;5135696;28;20051;-10
2022/10/07 00:44:46;;;;;;;2.53;1.08;;;20.60;48.40;;;;;;5114558;28;20048;-10
2022/10/07 00:47:33;;;;;;;1.70;1.00;;;20.60;48.40;;;;;;5116689;28;20087;-10
2022/10/07 00:50:08;;;;;;;2.13;1.20;;;20.60;48.30;;;;;;5134935;28;20039;-10
2022/10/07 00:52:41;;;;;;;1.95;1.40;;;20.60;48.30;;;;;;5135386;28;20047;-10
2022/10/07 00:55:11;;;;;;;1.83;1.15;;;20.60;48.40;;;;;;5135192;28;20463;-10
2022/10/07 00:57:39;;;;;;;2.97;1.75;;;20.60;48.40;;;;;;5134843;28;20062;-10
2022/10/07 01:00:06;;;;;;;1.55;1.10;;;20.60;48.40;;;;;;5116278;28;20047;-10
2022/10/07 01:02:33;;;;;;;1.63;1.10;;;20.60;48.30;;;;;;5135148;28;20134;-10
2022/10/07 01:05:02;;;;;;;2.20;1.33;;;20.60;48.40;;;;;;5135105;28;20055;-10
2022/10/07 01:07:28;;;;;;;1.77;1.15;;;20.60;48.30;;;;;;5134562;28;20530;-10
2022/10/07 01:09:55;;;;;;;1.50;1.02;;;20.60;48.30;;;;;;5115129;28;20135;-10
2022/10/07 01:12:37;;;;;;;1.25;1.00;;;20.60;48.30;;;;;;5116097;28;20051;-10
2022/10/07 01:15:14;;;;;;;1.60;1.05;;;20.60;48.30;;;;;;5134624;28;20112;-10
2022/10/07 01:17:52;;;;;;;1.67;1.10;;;20.60;48.40;;;;;;5134482;28;20050;-11
2022/10/07 01:20:30;;;;;;;1.00;0.90;;;20.60;48.40;;;;;;5134398;28;20482;-10
2022/10/07 01:23:30;;;;;;;2.55;1.40;;;20.60;48.40;;;;;;5134502;28;20047;-10
2022/10/07 01:26:13;;;;;;;2.60;1.27;;;20.60;48.40;;;;;;5134485;28;20062;-10
2022/10/07 01:28:51;;;;;;;2.25;1.15;;;20.50;48.30;;;;;;5115973;28;20142;-10
2022/10/07 01:31:24;;;;;;;2.45;1.38;;;20.50;48.40;;;;;;5134706;28;20077;-10
2022/10/07 01:33:52;;;;;;;1.23;0.95;;;20.50;48.40;;;;;;5116322;28;20386;-10
2022/10/07 01:36:22;;;;;;;;;;;20.50;48.40;;;;;;5116301;28;20498;-10
2022/10/07 01:38:58;;;;;;;1.25;1.15;;;20.50;48.40;;;;;;5115984;28;19998;-10
2022/10/07 01:41:24;;;;;;;1.33;1.02;;;20.50;48.30;;;;;;5116009;28;20054;-10
2022/10/07 01:43:52;;;;;;;1.77;1.20;;;20.50;48.30;;;;;;5116218;28;20383;-10
2022/10/07 01:46:22;;;;;;;1.10;1.00;;;20.50;48.30;;;;;;5115847;28;20138;-10
2022/10/07 01:48:48;;;;;;;1.73;1.10;;;20.50;48.30;;;;;;5133996;28;20051;-10
2022/10/07 01:51:22;;;;;;;1.40;1.13;;;20.50;48.40;;;;;;5114393;28;20156;-10
2022/10/07 01:54:34;;;;;;;1.92;1.10;;;20.50;48.30;;;;;;5115576;28;20066;-10
2022/10/07 01:57:26;;;;;;;1.83;1.10;;;20.50;48.40;;;;;;5115424;28;20062;-10
2022/10/07 02:00:11;;;;;;;1.15;0.95;;;20.50;48.40;;;;;;5115460;28;20502;-10
2022/10/07 02:03:16;;;;;;;2.42;1.13;;;20.50;48.40;;;;;;5115789;28;20073;-10
2022/10/07 02:05:51;;;;;;;1.88;1.15;;;20.50;48.40;;;;;;5134233;28;20051;-10
2022/10/07 02:08:41;;;;;;;1.77;1.20;;;20.50;48.40;;;;;;5114445;28;20052;-10
2022/10/07 02:11:20;;;;;;;1.98;1.15;;;20.50;48.40;;;;;;5134078;28;20047;-10
2022/10/07 02:14:00;;;;;;;1.45;1.02;;;20.50;48.40;;;;;;5115230;28;20547;-10
2022/10/07 02:16:47;;;;;;;1.85;1.17;;;20.50;48.40;;;;;;5114190;28;20052;-10
2022/10/07 02:19:38;;;;;;;1.55;1.00;;;20.50;48.30;;;;;;5115283;28;20047;-10
2022/10/07 02:22:06;;;;;;;1.85;1.10;;;20.50;48.40;;;;;;5114238;28;20059;-10
2022/10/07 02:24:34;;;;;;;2.65;1.10;;;20.50;48.40;;;;;;5114437;28;20047;-10
2022/10/07 02:27:06;;;;;;;1.10;1.00;;;20.50;48.40;;;;;;5115059;28;20043;-10
2022/10/07 02:29:36;;;;;;;1.48;1.25;;;20.50;48.40;;;;;;5114339;28;20391;-10
2022/10/07 02:32:06;;;;;;;1.55;1.02;;;20.50;48.40;;;;;;5114004;28;20049;-10
2022/10/07 02:34:33;;;;;;;1.55;1.00;;;20.40;48.40;;;;;;5133441;28;20047;-10
2022/10/07 02:37:07;;;;;;;2.85;1.20;;;20.50;48.40;;;;;;5115190;28;20184;-10
2022/10/07 02:39:33;;;;;;;1.33;1.00;;;20.40;48.40;;;;;;5114859;28;20051;-10
2022/10/07 02:42:02;;;;;;;1.20;0.90;;;20.50;48.40;;;;;;5113035;28;20056;-10
2022/10/07 02:44:43;;;;;;;1.58;1.02;;;20.40;48.40;;;;;;5115151;28;20096;-10
2022/10/07 02:47:32;;;;;;;;;;;20.40;48.40;;;;;;5115087;28;20108;-10
2022/10/07 02:50:02;;;;;;;2.20;1.20;;;20.40;48.40;;;;;;5112673;28;19920;-10
2022/10/07 02:52:30;;;;;;;1.45;0.95;;;20.40;48.40;;;;;;5114787;28;20051;-10
2022/10/07 02:55:03;;;;;;;1.10;1.00;;;20.50;48.30;;;;;;5114638;28;20054;-10
2022/10/07 02:57:33;;;;;;;1.73;1.30;;;20.50;48.30;;;;;;5114818;28;20043;-11
2022/10/07 03:00:00;;;;;;;1.63;1.07;;;20.50;48.30;;;;;;5114507;28;20043;-10
2022/10/07 03:02:43;;;;;;;1.45;0.90;;;20.50;48.30;;;;;;5114659;28;20062;-10
2022/10/07 03:05:12;;;;;;;1.92;1.20;;;20.50;48.20;;;;;;5133042;28;20043;-10
2022/10/07 03:07:38;;;;;;;1.48;1.08;;;20.60;48.10;;;;;;5114358;28;20414;-10
2022/10/07 03:10:08;;;;;;;1.33;1.05;;;20.60;48.00;;;;;;5113560;28;20391;-10
2022/10/07 03:12:33;;;;;;;1.10;0.90;;;20.60;48.00;;;;;;5114507;28;20070;-10
2022/10/07 03:14:59;;;;;;;2.90;1.35;;;20.70;47.90;;;;;;5115039;28;20047;-10
2022/10/07 03:17:25;;;;;;;0.98;0.90;;;20.70;47.80;;;;;;5114641;28;20047;-10
2022/10/07 03:19:51;;;;;;;2.15;1.10;;;20.70;47.70;;;;;;5114235;28;20039;-10
2022/10/07 03:22:17;;;;;;;1.40;1.17;;;20.80;47.70;;;;;;5130781;28;20044;-10
2022/10/07 03:24:43;;;;;;;1.58;1.00;;;20.80;47.60;;;;;;5132795;28;20069;-10
2022/10/07 03:27:08;;;;;;;1.42;1.02;;;20.80;47.50;;;;;;5132706;28;20069;-10
2022/10/07 03:29:36;;;;;;;1.42;1.10;;;20.90;47.50;;;;;;5114241;28;20090;-10
2022/10/07 03:32:03;;;;;;;2.05;1.10;;;20.90;47.40;;;;;;5114915;28;20433;-10
2022/10/07 03:34:30;;;;;;;1.05;0.95;;;20.90;47.30;;;;;;5132679;27;20115;-10
2022/10/07 03:36:56;;;;;;;1.27;1.10;;;20.90;47.30;;;;;;5116756;28;20093;-10
2022/10/07 03:39:22;;;;;;;1.77;0.90;;;21.00;47.30;;;;;;5136160;28;20510;-10
2022/10/07 03:41:50;;;;;;;1.98;1.10;;;21.00;47.30;;;;;;5118117;28;20055;-10
2022/10/07 03:44:18;;;;;;;1.80;1.15;;;21.00;47.30;;;;;;5117545;28;20398;-10
2022/10/07 03:46:48;;;;;;;0.95;0.82;;;21.00;47.20;;;;;;5116638;28;20048;-10
2022/10/07 03:49:15;;;;;;;1.00;0.88;;;21.00;47.20;;;;;;5117415;28;20062;-10
2022/10/07 03:51:42;;;;;;;1.27;1.00;;;21.00;47.10;;;;;;5117431;28;20398;-10
2022/10/07 03:54:08;;;;;;;1.20;1.00;;;21.00;47.10;;;;;;5115298;28;20047;-10
2022/10/07 03:56:34;;;;;;;1.55;0.80;;;21.00;47.10;;;;;;5117445;28;20062;-10
2022/10/07 03:59:00;;;;;;;0.82;0.82;;;21.00;47.10;;;;;;5136275;28;20428;-10
2022/10/07 04:01:30;;;;;;;2.63;0.98;;;21.00;47.10;;;;;;5117812;28;20075;-10
2022/10/07 04:03:59;;;;;;;1.35;1.08;;;21.00;47.10;;;;;;5115664;28;20068;-10
2022/10/07 04:06:25;;;;;;;1.73;0.82;;;21.00;47.20;;;;;;5117241;28;20059;-10
2022/10/07 04:08:52;;;;;;;2.53;1.23;;;20.90;47.10;;;;;;5117689;28;20059;-10
2022/10/07 04:11:18;;;;;;;1.05;0.82;;;21.00;47.30;;;;;;5115953;28;20070;-10
2022/10/07 04:13:44;;;;;;;1.83;1.30;;;20.90;47.20;;;;;;5115241;28;20063;-10
2022/10/07 04:16:11;;;;;;;1.25;0.95;;;20.90;47.30;;;;;;5117065;28;20043;-10
2022/10/07 04:18:40;;;;;;;2.03;1.33;;;20.90;47.30;;;;;;5135763;28;20055;-10
2022/10/07 04:21:07;;;;;;;1.73;1.10;;;20.90;47.40;;;;;;5115918;28;20193;-10
2022/10/07 04:23:35;;;;;;;1.50;0.93;;;20.90;47.50;;;;;;5117018;28;20134;-10
2022/10/07 04:26:09;;;;;;;2.08;1.20;;;20.90;47.40;;;;;;5115107;28;20610;-10
2022/10/07 04:28:36;;;;;;;1.90;1.40;;;20.90;47.40;;;;;;5132953;28;20051;-10
2022/10/07 04:31:08;;;;;;;1.30;1.20;;;20.80;47.40;;;;;;5116099;28;20044;-10
2022/10/07 04:33:40;;;;;;;1.80;1.05;;;20.80;47.50;;;;;;5117081;28;20069;-10
2022/10/07 04:36:08;;;;;;;2.00;1.40;;;20.80;47.50;;;;;;5115733;28;20514;-10
2022/10/07 04:38:41;;;;;;;1.48;1.15;;;20.80;47.50;;;;;;5116708;28;20110;-10
2022/10/07 04:41:08;;;;;;;1.73;0.95;;;20.80;47.50;;;;;;5116502;28;20043;-10
2022/10/07 04:43:35;;;;;;;2.03;1.25;;;20.80;47.50;;;;;;5116694;28;20073;-10
2022/10/07 04:46:08;;;;;;;2.00;1.20;;;20.80;47.50;;;;;;5134932;27;20047;-10
2022/10/07 04:48:37;;;;;;;1.08;0.98;;;20.70;47.50;;;;;;5115123;28;20116;-11
2022/10/07 04:51:08;;;;;;;1.85;1.20;;;20.70;47.50;;;;;;5114776;28;20048;-10
2022/10/07 04:53:36;;;;;;;1.48;1.00;;;20.70;47.60;;;;;;5117145;28;20055;-10
2022/10/07 04:56:03;;;;;;;1.38;1.00;;;20.70;47.50;;;;;;5133527;28;20058;-10
2022/10/07 04:58:30;;;;;;;1.75;1.23;;;20.70;47.60;;;;;;5116268;28;20050;-11
2022/10/07 05:00:57;;;;;;;1.45;1.02;;;20.70;47.50;;;;;;5116554;28;20040;-10
2022/10/07 05:03:25;;;;;;;0.80;0.80;;;20.70;47.50;;;;;;5116307;28;20090;-10
2022/10/07 05:05:55;;;;;;;1.70;1.10;;;20.70;47.60;;;;;;5116189;28;20064;-10
2022/10/07 05:08:23;;;;;;;1.17;1.00;;;20.70;47.60;;;;;;5114731;28;20101;-10
2022/10/07 05:10:57;;;;;;;2.60;0.85;;;20.70;47.60;;;;;;5116603;28;20134;-10
2022/10/07 05:13:25;;;;;;;2.08;0.93;;;20.70;47.50;;;;;;5115375;28;20051;-10
2022/10/07 05:15:56;;;;;;;1.52;1.10;;;20.70;47.50;;;;;;5116069;28;20054;-10
2022/10/07 05:18:25;;;;;;;1.48;1.10;;;20.80;47.60;;;;;;5115891;28;20062;-10
2022/10/07 05:20:54;;;;;;;1.75;1.05;;;20.80;47.50;;;;;;5116075;28;20047;-10
2022/10/07 05:23:24;;;;;;;2.38;1.25;;;20.80;47.50;;;;;;5133511;28;20054;-10
2022/10/07 05:26:00;;;;;;;2.38;1.20;;;20.80;47.40;;;;;;5116299;28;20054;-10
2022/10/07 05:28:27;;;;;;;1.27;1.10;;;20.80;47.40;;;;;;5114924;28;20124;-10
2022/10/07 05:31:13;;;;;;;1.50;1.05;;;20.80;47.30;;;;;;5115950;28;20398;-10
2022/10/07 05:33:41;;;;;;;1.48;1.10;;;20.80;47.30;;;;;;5116408;28;20095;-10
2022/10/07 05:36:08;;;;;;;1.83;1.02;;;20.80;47.30;;;;;;5114208;28;20421;-10
2022/10/07 05:38:36;;;;;;;1.92;1.33;;;20.80;47.30;;;;;;5115449;28;20043;-10
2022/10/07 05:41:05;;;;;;;1.38;1.20;;;20.90;47.30;;;;;;5115657;28;20592;-10
2022/10/07 05:43:35;;;;;;;1.05;0.82;;;20.90;47.30;;;;;;5115551;28;20491;-10
2022/10/07 05:46:08;;;;;;;1.67;1.10;;;20.90;47.30;;;;;;5115805;28;20058;-10
2022/10/07 05:48:39;;;;;;;1.63;1.23;;;20.90;47.20;;;;;;5115660;28;20055;-10
2022/10/07 05:51:07;;;;;;;1.73;1.00;;;20.90;47.20;;;;;;5115558;28;20204;-10
2022/10/07 05:53:33;;;;;;;2.35;1.10;;;20.90;47.10;;;;;;5115360;28;20047;-10
2022/10/07 05:56:07;;;;;;;2.50;1.17;;;20.90;47.10;;;;;;5115321;28;20455;-10
2022/10/07 05:58:37;;;;;;;2.53;1.35;;;21.00;47.10;;;;;;5113869;28;20138;-10
2022/10/07 06:01:05;;;;;;;1.65;1.05;;;21.00;47.10;;;;;;5115871;28;20051;-10
2022/10/07 06:03:32;;;;;;;1.55;1.13;;;21.00;46.90;;;;;;5114516;28;20462;-10
2022/10/07 06:05:59;;;;;;;2.78;0.90;;;21.10;46.90;;;;;;5115352;28;20051;-10
2022/10/07 06:08:25;;;;;;;2.35;1.35;;;21.10;46.80;;;;;;5113777;28;20388;-11
2022/10/07 06:13:48;;;;;;;1.67;1.25;;;21.20;46.70;;;;;;5133954;28;20042;-10
2022/10/07 06:16:14;;;;;;;1.35;1.13;;;21.20;46.50;;;;;;5115720;28;20058;-10
2022/10/07 06:18:40;;;;;;;1.63;1.00;;;21.30;46.40;;;;;;5114835;28;20487;-11
2022/10/07 06:21:06;;;;;;;1.73;1.00;;;21.30;46.30;;;;;;5115425;28;20043;-10
2022/10/07 06:23:32;;;;;;;3.20;1.27;;;21.40;46.30;;;;;;5134071;28;20047;-10
2022/10/07 06:26:04;;;;;;;2.47;1.00;;;21.40;46.10;;;;;;5115293;28;20092;-10
2022/10/07 06:28:35;;;;;;;2.80;1.20;;;21.50;46.00;;;;;;5098183;28;20121;-10
2022/10/07 06:31:04;;;;;;;1.67;1.00;;;21.50;45.90;;;;;;5114182;28;20043;-10
2022/10/07 06:33:30;;;;;;;2.90;1.20;;;21.60;45.80;;;;;;5114795;28;20293;-10
2022/10/07 06:35:56;;;;;;;2.05;0.98;;;21.60;45.70;;;;;;5115075;28;20054;-10
2022/10/07 06:38:23;;;;;;;1.65;1.30;;;21.70;45.60;;;;;;5113808;28;20053;-10
2022/10/07 06:41:02;;;;;;;2.33;1.40;;;21.70;45.50;;;;;;5133166;28;20104;-10
2022/10/07 06:43:32;;;;;;;1.63;1.05;;;21.80;45.40;;;;;;5115158;28;20087;-10
2022/10/07 06:46:06;;;;;;;1.30;1.20;;;21.90;45.30;;;;;;5114713;28;20099;-10
2022/10/07 06:48:34;;;;;;;1.35;1.00;;;21.90;45.30;;;;;;5114548;28;20055;-10
2022/10/07 06:51:04;;;;;;;1.70;0.98;;;21.90;45.10;;;;;;5114722;28;20047;-10
2022/10/07 06:53:32;;;;;;;1.98;1.35;;;22.00;45.10;;;;;;5113477;28;20055;-10
2022/10/07 06:56:03;;;;;;;2.33;1.35;;;22.00;45.00;;;;;;5115118;28;20051;-11
2022/10/07 06:58:32;;;;;;;1.67;0.93;;;22.00;44.90;;;;;;5115183;28;20063;-11
2022/10/07 07:00:58;;;;;;;1.80;1.13;;;22.00;44.90;;;;;;5114758;28;20059;-11
2022/10/07 07:03:25;;;;;;;2.70;1.00;;;22.00;44.80;;;;;;5114983;28;20372;-11
2022/10/07 07:05:52;;;;;;;1.98;1.20;;;22.10;44.80;;;;;;5114796;28;20062;-11
2022/10/07 07:08:18;;;;;;;3.15;0.98;;;22.10;44.80;;;;;;5114288;28;20104;-11
2022/10/07 07:10:45;;;;;;;1.58;1.00;;;22.10;44.70;;;;;;5117229;28;20138;-11
2022/10/07 07:13:12;;;;;;;2.75;1.02;;;22.20;44.70;;;;;;5118268;28;20054;-11
2022/10/07 07:15:39;;;;;;;2.13;1.08;;;22.30;44.50;;;;;;5117893;28;20546;-11
2022/10/07 07:18:07;;;;;;;2.28;1.20;;;22.40;44.20;;;;;;5116057;28;20059;-11
2022/10/07 07:20:36;;;;;;;1.95;1.38;;;22.40;44.10;;;;;;5117907;28;20051;-11
2022/10/07 07:23:03;;;;;;;1.50;0.90;;;22.40;44.10;;;;;;5117705;28;20047;-11
2022/10/07 07:25:31;;;;;;;1.50;1.00;;;22.30;44.20;;;;;;5118237;28;20058;-11
2022/10/07 07:28:00;;;;;;;1.50;1.13;;;22.30;44.30;;;;;;5118018;28;20099;-11
2022/10/07 07:30:30;;;;;;;1.90;1.27;;;22.30;44.30;;;;;;5136134;28;20043;-11
2022/10/07 07:32:57;;;;;;;2.00;1.27;;;22.30;44.30;;;;;;5117862;28;20383;-11
2022/10/07 07:35:25;;;;;;;2.03;1.15;;;22.20;44.40;;;;;;5117624;28;20058;-11
2022/10/07 07:37:50;;;;;;;2.25;1.10;;;22.20;44.40;;;;;;5135973;28;20458;-11
2022/10/07 07:40:18;;;;;;;1.73;1.20;;;22.30;44.50;;;;;;5117910;28;20175;-11
2022/10/07 07:42:45;;;;;;;2.38;1.30;;;22.20;44.40;;;;;;5117701;28;20043;-11
2022/10/07 07:45:11;;;;;;;3.03;1.52;;;22.20;44.50;;;;;;5117356;28;20086;-11
2022/10/07 07:47:38;;;;;;;2.50;1.13;;;22.20;44.50;;;;;;5117296;28;20055;-11
2022/10/07 07:50:04;;;;;;;2.95;1.30;;;22.10;44.60;;;;;;5135695;28;20043;-11
2022/10/07 07:52:32;;;;;;;1.23;1.02;;;22.10;44.60;;;;;;5135856;28;20082;-11
2022/10/07 07:55:01;;;;;;;1.13;0.93;;;22.10;44.70;;;;;;5136211;28;20039;-11
2022/10/07 07:57:28;;;;;;;1.52;1.30;;;22.10;44.70;;;;;;5117587;28;20061;-11
2022/10/07 07:59:58;;;;;;;2.10;1.00;;;22.00;44.80;;;;;;5116994;28;20047;-11
2022/10/07 08:02:24;;;;;;;1.17;1.08;;;22.00;44.90;;;;;;5117640;28;20050;-11
2022/10/07 08:04:51;;;;;;;1.00;0.80;;;21.90;44.90;;;;;;5117002;28;20051;-11
2022/10/07 08:07:17;;;;;;;2.65;1.15;;;21.90;45.00;;;;;;5117516;28;20494;-11
2022/10/07 08:09:45;;;;;;;1.42;0.90;;;21.90;45.00;;;;;;5116963;28;20058;-11
2022/10/07 08:12:13;;;;;;;2.38;1.40;;;21.80;45.20;;;;;;5117485;28;20487;-11
2022/10/07 08:14:40;;;;;;;1.98;1.10;;;21.80;45.30;;;;;;5116475;28;20558;-11
2022/10/07 08:17:08;;;;;;;1.85;1.00;;;21.70;45.40;;;;;;5116729;28;20053;-11
2022/10/07 08:19:34;;;;;;;1.73;1.10;;;21.70;45.40;;;;;;5116579;28;20859;-11
2022/10/07 08:22:00;;;;;;;1.35;1.17;;;21.70;45.40;;;;;;5115833;28;20050;-11
2022/10/07 08:24:28;;;;;;;3.25;1.42;;;21.70;45.40;;;;;;5100719;28;20051;-11
2022/10/07 08:26:54;;;;;;;2.20;0.90;;;21.70;45.50;;;;;;5116763;28;20073;-11
2022/10/07 08:29:20;;;;;;;0.82;0.77;;;21.70;45.50;;;;;;5117212;28;20537;-11
2022/10/07 08:31:47;;;;;;;2.60;1.67;;;21.70;45.60;;;;;;5116572;28;20055;-10
2022/10/07 08:34:13;;;;;;;3.83;1.20;;;21.60;45.50;;;;;;5134823;28;20099;-11
2022/10/07 08:36:39;;;;;;;1.67;1.20;;;21.60;45.60;;;;;;5134954;28;20505;-11
2022/10/07 08:39:06;;;;;;;3.83;1.30;;;21.60;45.60;;;;;;5135162;28;20141;-11
2022/10/07 08:41:42;;;;;;;2.35;1.20;;;21.60;45.60;;;;;;5134718;28;20490;-11
2022/10/07 08:44:22;;;;;;;1.75;1.20;;;21.50;45.70;;;;;;5134821;28;20062;-11
2022/10/07 08:47:13;;;;;;;3.83;1.23;;;21.50;45.80;;;;;;5116507;28;20051;-11
2022/10/07 08:49:53;;;;;;;2.53;1.52;;;21.50;45.90;;;;;;5134800;28;20074;-11
2022/10/07 08:52:35;;;;;;;1.73;1.27;;;21.50;46.00;;;;;;5135038;28;20043;-11
2022/10/07 08:55:03;;;;;;;2.47;1.25;;;21.50;46.00;;;;;;5134724;28;20058;-11
2022/10/07 08:57:57;;;;;;;1.60;1.00;;;21.40;46.00;;;;;;5134662;28;20047;-11
2022/10/07 09:00:23;;;;;;;1.75;1.20;;;21.40;46.00;;;;;;5134890;28;20046;-11
2022/10/07 09:03:26;;;;;;;3.88;1.10;;;21.40;46.00;;;;;;5134726;28;20054;-11
2022/10/07 09:05:54;;;;;;;1.63;1.33;;;21.40;46.00;;;;;;5102479;28;20051;-11
2022/10/07 09:08:39;;;;;;;2.65;1.15;;;21.40;46.00;;;;;;5134405;28;20529;-10
2022/10/07 09:11:17;;;;;;;2.30;1.25;;;21.40;45.90;;;;;;5134516;28;20035;-11
2022/10/07 09:13:58;;;;;;;1.52;1.17;;;21.40;45.90;;;;;;5134389;28;20055;-11
2022/10/07 09:16:34;;;;;;;2.90;1.20;;;21.40;46.00;;;;;;5116290;28;20503;-11
2022/10/07 09:19:02;;;;;;;1.90;1.30;;;21.40;46.00;;;;;;5134061;28;20188;-11
2022/10/07 09:21:42;;;;;;;1.85;1.25;;;21.40;46.00;;;;;;5134274;28;20070;-11
2022/10/07 09:24:15;;;;;;;2.70;1.40;;;21.40;46.00;;;;;;5134690;28;20119;-11
2022/10/07 09:26:40;;;;;;;2.80;1.00;;;21.40;46.10;;;;;;5134178;28;20483;-11
2022/10/07 09:29:08;;;;;;;1.25;1.10;;;21.40;46.10;;;;;;5134204;28;20055;-11
2022/10/07 09:31:34;;;;;;;2.58;1.10;;;21.40;46.10;;;;;;5134228;28;20509;-11
2022/10/07 09:34:01;;;;;;;1.25;0.95;;;21.40;46.10;;;;;;5115025;28;20051;-10
2022/10/07 09:36:27;;;;;;;3.38;1.40;;;21.40;46.00;;;;;;5133991;28;20131;-11
2022/10/07 09:38:52;;;;;;;2.10;1.10;;;21.40;46.10;;;;;;5133795;28;20494;-11
2022/10/07 09:41:34;;;;;;;1.83;1.20;;;21.40;46.10;;;;;;5134078;28;20051;-11
2022/10/07 09:44:14;;;;;;;3.20;1.30;;;21.40;46.10;;;;;;5134046;28;20126;-11
2022/10/07 09:46:48;;;;;;;1.98;1.15;;;21.40;46.10;;;;;;5134129;28;20088;-11
2022/10/07 09:49:28;;;;;;;1.77;1.20;;;21.40;46.10;;;;;;5133889;28;20054;-11
2022/10/07 09:52:01;;;;;;;3.13;1.30;;;21.40;46.20;;;;;;5134101;28;20066;-11
2022/10/07 09:54:29;;;;;;;1.73;1.10;;;21.30;46.20;;;;;;5134211;28;20043;-11
2022/10/07 09:56:58;;;;;;;2.92;1.30;;;21.40;46.10;;;;;;5133638;28;20444;-11
2022/10/07 09:59:35;;;;;;;1.42;1.20;;;21.40;46.10;;;;;;5133840;28;20497;-11
2022/10/07 10:02:13;;;;;;;2.25;1.15;;;21.40;46.10;;;;;;5133479;28;20120;-11
2022/10/07 10:04:47;;;;;;;2.28;1.35;;;21.40;46.10;;;;;;5134002;28;20047;-11
2022/10/07 10:07:23;;;;;;;2.92;1.17;;;21.30;46.10;;;;;;5113954;28;20087;-11
2022/10/07 10:10:03;;;;;;;2.22;1.52;;;21.40;46.20;;;;;;5133345;28;20970;-11
2022/10/07 10:12:52;;;;;;;1.80;1.20;;;21.30;46.20;;;;;;5133419;28;20107;-11
2022/10/07 10:15:38;;;;;;;1.55;1.10;;;21.40;46.20;;;;;;5133364;28;20074;-11
2022/10/07 10:18:28;;;;;;;2.15;1.13;;;21.30;46.10;;;;;;5133108;28;20051;-12
2022/10/07 10:20:54;;;;;;;1.58;1.23;;;21.30;46.20;;;;;;5133042;28;20043;-11
2022/10/07 10:23:35;;;;;;;2.22;1.20;;;21.30;46.20;;;;;;5133375;28;20062;-11
2022/10/07 10:26:30;;;;;;;3.00;1.48;;;21.30;46.20;;;;;;5133240;28;20047;-11
2022/10/07 10:29:08;;;;;;;1.85;1.30;;;21.30;46.10;;;;;;5114875;28;20406;-11
2022/10/07 10:32:01;;;;;;;3.92;1.27;;;21.30;46.10;;;;;;5133255;28;20471;-11
2022/10/07 10:34:49;;;;;;;2.03;1.08;;;21.40;46.10;;;;;;5132299;28;20069;-12
2022/10/07 10:37:25;;;;;;;1.63;1.25;;;21.40;46.10;;;;;;5133114;28;20051;-11
2022/10/07 10:40:06;;;;;;;2.22;1.30;;;21.40;46.10;;;;;;5133070;28;20061;-11
2022/10/07 10:42:52;;;;;;;1.83;1.15;;;21.40;46.10;;;;;;5133402;28;20055;-11
2022/10/07 10:45:56;;;;;;;3.00;1.20;;;21.40;46.10;;;;;;5135266;27;20068;-11
2022/10/07 10:48:36;;;;;;;2.42;1.30;;;21.40;46.10;;;;;;5136826;28;20478;-11
2022/10/07 10:51:36;;;;;;;3.15;1.77;;;21.30;46.10;;;;;;5137271;28;20039;-11
2022/10/07 10:54:25;;;;;;;1.77;1.17;;;21.30;46.10;;;;;;5116888;28;20432;-11
2022/10/07 10:57:10;;;;;;;2.95;1.38;;;21.30;46.10;;;;;;5136311;28;20055;-11
2022/10/07 10:59:41;;;;;;;2.92;1.35;;;21.40;46.10;;;;;;5136849;28;20054;-11
2022/10/07 11:02:38;;;;;;;2.42;1.00;;;21.30;46.10;;;;;;5136794;28;20047;-11
2022/10/07 11:05:21;;;;;;;1.98;1.25;;;21.30;46.10;;;;;;5136818;28;20406;-11
2022/10/07 11:07:53;;;;;;;2.38;1.30;;;21.40;46.10;;;;;;5136649;28;20134;-11
2022/10/07 11:10:23;;;;;;;;;;;21.30;46.10;;;;;;5137258;28;20051;-11
2022/10/07 11:12:57;;;;;;;1.25;1.13;;;21.40;46.10;;;;;;5136461;28;20013;-11
2022/10/07 11:15:32;;;;;;;2.42;1.27;;;21.40;46.10;;;;;;5136469;28;20114;-11
2022/10/07 11:18:09;;;;;;;1.42;1.20;;;21.40;46.10;;;;;;5134733;28;20096;-9
2022/10/07 11:20:38;;;;;;;2.30;1.30;;;21.40;46.70;;;;;;5136137;28;20044;-12
2022/10/07 11:23:30;;;;;;;1.90;1.20;;;21.40;46.00;;;;;;5136312;28;20055;-9
2022/10/07 11:26:01;;;;;;;1.60;1.10;;;21.40;46.10;;;;;;5136002;28;20085;-11
2022/10/07 11:28:28;;;;;;;2.63;1.20;;;21.40;46.10;;;;;;5136302;28;20065;-11
2022/10/07 11:31:34;;;;;;;2.05;1.45;;;21.40;46.10;;;;;;5135894;28;20054;-10
2022/10/07 11:34:05;;;;;;;1.73;1.40;;;21.40;46.00;;;;;;5130648;28;20055;-10
2022/10/07 11:36:43;;;;;;;2.42;1.10;;;21.40;46.00;;;;;;5136196;28;20483;-10
2022/10/07 11:39:08;;;;;;;1.95;1.20;;;21.40;46.00;;;;;;5135552;28;20050;-10
2022/10/07 11:41:49;;;;;;;2.63;1.10;;;21.40;46.00;;;;;;5135586;28;20122;-10
2022/10/07 11:44:25;;;;;;;;;;;21.40;46.00;;;;;;5136293;28;20043;-10
2022/10/07 11:46:54;;;;;;;1.95;1.10;;;21.40;46.00;;;;;;5136199;28;20359;-10
2022/10/07 11:49:45;;;;;;;2.05;1.23;;;21.40;46.00;;;;;;5136142;28;20043;-10
2022/10/07 11:52:23;;;;;;;2.90;1.55;;;21.40;46.00;;;;;;5135475;28;20491;-11
2022/10/07 11:55:06;;;;;;;3.63;1.15;;;21.40;46.00;;;;;;5136020;28;20074;-11
2022/10/07 11:57:42;;;;;;;1.95;1.20;;;21.40;46.00;;;;;;5134846;28;20062;-11
2022/10/07 12:00:28;;;;;;;1.48;1.10;;;21.40;46.00;;;;;;5135796;28;20043;-11
2022/10/07 12:03:19;;;;;;;3.42;1.30;;;21.40;45.90;;;;;;5135122;28;20062;-11
2022/10/07 12:05:48;;;;;;;2.45;1.00;;;21.40;46.00;;;;;;5135319;28;20501;-11
2022/10/07 12:08:30;;;;;;;2.42;1.38;;;21.40;46.00;;;;;;5135528;28;20095;-11
2022/10/07 12:11:21;;;;;;;2.00;1.38;;;21.40;46.00;;;;;;5135513;28;20376;-11
2022/10/07 12:13:52;;;;;;;2.22;1.10;;;21.40;46.00;;;;;;5135332;28;20047;-11
2022/10/07 12:16:30;;;;;;;3.03;1.10;;;21.40;46.00;;;;;;5135902;28;20432;-11
2022/10/07 12:19:09;;;;;;;2.55;1.27;;;21.40;46.00;;;;;;5135622;28;20076;-11
2022/10/07 12:22:03;;;;;;;2.25;1.25;;;21.40;46.00;;;;;;5135766;28;20432;-11
2022/10/07 12:24:30;;;;;;;2.22;1.20;;;21.40;46.00;;;;;;5135145;28;20104;-11
2022/10/07 12:27:05;;;;;;;2.03;0.95;;;21.40;45.90;;;;;;5135470;28;20062;-11
2022/10/07 12:29:44;;;;;;;1.35;1.17;;;21.40;46.00;;;;;;5134920;28;20070;-11
2022/10/07 12:32:49;;;;;;;1.83;1.30;;;21.50;46.00;;;;;;5135037;28;20047;-11
2022/10/07 12:35:34;;;;;;;2.63;1.38;;;21.40;45.90;;;;;;5135704;28;20092;-11
2022/10/07 12:38:22;;;;;;;2.53;1.50;;;21.40;46.00;;;;;;5135000;28;20073;-11
2022/10/07 12:41:04;;;;;;;2.33;1.33;;;21.40;46.10;;;;;;5134690;28;20188;-11
2022/10/07 12:43:36;;;;;;;3.10;1.45;;;21.40;46.10;;;;;;5134936;28;20133;-11
2022/10/07 12:46:13;;;;;;;1.77;1.35;;;21.40;46.00;;;;;;5135000;28;20146;-11
2022/10/07 12:48:57;;;;;;;1.67;1.17;;;21.40;46.10;;;;;;5135306;28;20411;-11
2022/10/07 12:51:43;;;;;;;1.42;1.10;;;21.40;46.00;;;;;;5134761;28;20098;-11
2022/10/07 12:54:44;;;;;;;2.75;1.20;;;21.40;46.00;;;;;;5134978;28;20164;-11
2022/10/07 12:57:12;;;;;;;1.88;1.10;;;21.40;46.10;;;;;;5051159;28;20132;-11
2022/10/07 13:00:09;;;;;;;3.40;1.30;;;21.40;46.10;;;;;;5116857;28;20182;-11
2022/10/07 13:02:56;;;;;;;3.78;1.40;;;21.40;46.10;;;;;;5134682;28;20095;-11
2022/10/07 13:05:36;;;;;;;2.60;1.20;;;21.40;46.10;;;;;;5134625;28;20043;-10
2022/10/07 13:08:33;;;;;;;1.90;1.23;;;21.40;46.10;;;;;;5134501;27;20051;-11
2022/10/07 13:11:08;;;;;;;3.67;1.23;;;21.40;46.10;;;;;;5134586;28;20096;-11
2022/10/07 13:13:51;;;;;;;1.92;1.10;;;21.40;46.10;;;;;;5134865;28;20406;-11
2022/10/07 13:16:35;;;;;;;2.05;1.20;;;21.30;46.10;;;;;;5134684;28;20085;-11
2022/10/07 13:19:34;;;;;;;1.63;1.10;;;21.30;46.10;;;;;;5134003;28;20141;-11
2022/10/07 13:22:14;;;;;;;3.22;1.38;;;21.30;46.10;;;;;;5134276;28;20043;-11